sensor_id;sensor_type;location;lat;lon;timestamp;pressure;altitude;pressure_sealevel;temperature;humidity
62038;BME280;47991;42.974;12.082;2023-02-21T00:00:56;98593.52;;;7.67;81.60
62038;BME280;47991;42.974;12.082;2023-02-21T00:03:42;98593.21;;;7.54;81.66
62038;BME280;47991;42.974;12.082;2023-02-21T00:06:27;98593.38;;;7.58;81.99
62038;BME280;47991;42.974;12.082;2023-02-21T00:09:13;98589.69;;;7.56;81.69
62038;BME280;47991;42.974;12.082;2023-02-21T00:11:58;98585.30;;;7.51;81.63
62038;BME280;47991;42.974;12.082;2023-02-21T00:14:45;98587.41;;;7.55;81.66
62038;BME280;47991;42.974;12.082;2023-02-21T00:17:31;98584.95;;;7.54;81.92
62038;BME280;47991;42.974;12.082;2023-02-21T00:20:17;98588.63;;;7.59;81.09
62038;BME280;47991;42.974;12.082;2023-02-21T00:23:03;98588.80;;;7.59;80.49
62038;BME280;47991;42.974;12.082;2023-02-21T00:25:48;98584.42;;;7.56;80.98
62038;BME280;47991;42.974;12.082;2023-02-21T00:28:34;98577.39;;;7.53;80.47
62038;BME280;47991;42.974;12.082;2023-02-21T00:31:19;98576.18;;;7.46;80.46
62038;BME280;47991;42.974;12.082;2023-02-21T00:34:05;98575.12;;;7.47;80.84
62038;BME280;47991;42.974;12.082;2023-02-21T00:36:52;98571.41;;;7.51;80.64
62038;BME280;47991;42.974;12.082;2023-02-21T00:39:37;98565.63;;;7.44;81.46
62038;BME280;47991;42.974;12.082;2023-02-21T00:42:22;98566.02;;;7.36;80.82
62038;BME280;47991;42.974;12.082;2023-02-21T00:45:09;98567.25;;;7.36;81.35
62038;BME280;47991;42.974;12.082;2023-02-21T00:47:56;98567.40;;;7.38;80.92
62038;BME280;47991;42.974;12.082;2023-02-21T00:50:41;98569.69;;;7.40;80.35
62038;BME280;47991;42.974;12.082;2023-02-21T00:53:27;98572.35;;;7.32;80.43
62038;BME280;47991;42.974;12.082;2023-02-21T00:56:12;98571.13;;;7.25;80.78
62038;BME280;47991;42.974;12.082;2023-02-21T00:58:58;98575.70;;;7.25;80.79
62038;BME280;47991;42.974;12.082;2023-02-21T01:01:44;98570.07;;;7.27;80.78
62038;BME280;47991;42.974;12.082;2023-02-21T01:04:29;98569.54;;;7.30;80.75
62038;BME280;47991;42.974;12.082;2023-02-21T01:07:15;98567.93;;;7.38;81.09
62038;BME280;47991;42.974;12.082;2023-02-21T01:10:01;98565.13;;;7.37;80.87
62038;BME280;47991;42.974;12.082;2023-02-21T01:12:46;98564.95;;;7.37;80.87
62038;BME280;47991;42.974;12.082;2023-02-21T01:15:32;98560.20;;;7.35;80.64
62038;BME280;47991;42.974;12.082;2023-02-21T01:18:19;98558.63;;;7.33;81.19
62038;BME280;47991;42.974;12.082;2023-02-21T01:21:05;98562.48;;;7.37;80.94
62038;BME280;47991;42.974;12.082;2023-02-21T01:23:52;98556.85;;;7.39;81.26
62038;BME280;47991;42.974;12.082;2023-02-21T01:26:38;98550.34;;;7.40;81.39
62038;BME280;47991;42.974;12.082;2023-02-21T01:29:24;98552.80;;;7.41;81.63
62038;BME280;47991;42.974;12.082;2023-02-21T01:32:09;98546.27;;;7.43;81.38
62038;BME280;47991;42.974;12.082;2023-02-21T01:34:56;98542.02;;;7.49;81.85
62038;BME280;47991;42.974;12.082;2023-02-21T01:37:41;98542.54;;;7.55;81.84
62038;BME280;47991;42.974;12.082;2023-02-21T01:40:27;98542.36;;;7.55;82.19
62038;BME280;47991;42.974;12.082;2023-02-21T01:43:19;98540.94;;;7.61;81.92
62038;BME280;47991;42.974;12.082;2023-02-21T01:46:10;98539.34;;;7.66;82.12
62038;BME280;47991;42.974;12.082;2023-02-21T01:48:58;98541.77;;;7.71;82.29
62038;BME280;47991;42.974;12.082;2023-02-21T01:51:45;98536.98;;;7.77;82.01
62038;BME280;47991;42.974;12.082;2023-02-21T01:54:35;98534.32;;;7.83;82.39
62038;BME280;47991;42.974;12.082;2023-02-21T01:57:22;98533.63;;;7.79;83.60
62038;BME280;47991;42.974;12.082;2023-02-21T02:00:10;98532.39;;;7.81;82.73
62038;BME280;47991;42.974;12.082;2023-02-21T02:03:02;98526.20;;;7.88;82.64
62038;BME280;47991;42.974;12.082;2023-02-21T02:05:57;98529.33;;;7.96;82.38
62038;BME280;47991;42.974;12.082;2023-02-21T02:08:43;98529.83;;;8.02;82.51
62038;BME280;47991;42.974;12.082;2023-02-21T02:20:41;98510.41;;;8.09;82.75
62038;BME280;47991;42.974;12.082;2023-02-21T02:31:37;98498.10;;;7.77;83.65
62038;BME280;47991;42.974;12.082;2023-02-21T02:39:39;98496.95;;;7.90;83.22
62038;BME280;47991;42.974;12.082;2023-02-21T02:44:41;98496.25;;;7.91;83.20
62038;BME280;47991;42.974;12.082;2023-02-21T02:47:17;98492.19;;;7.93;83.50
62038;BME280;47991;42.974;12.082;2023-02-21T02:49:47;98490.24;;;7.93;83.62
62038;BME280;47991;42.974;12.082;2023-02-21T02:52:16;98490.77;;;7.92;83.46
62038;BME280;47991;42.974;12.082;2023-02-21T02:54:43;98489.34;;;7.98;83.41
62038;BME280;47991;42.974;12.082;2023-02-21T02:57:10;98486.85;;;8.03;83.59
62038;BME280;47991;42.974;12.082;2023-02-21T02:59:42;98487.91;;;8.01;84.49
62038;BME280;47991;42.974;12.082;2023-02-21T03:08:02;98477.52;;;8.01;83.23
62038;BME280;47991;42.974;12.082;2023-02-21T03:10:35;98475.92;;;8.04;83.57
62038;BME280;47991;42.974;12.082;2023-02-21T03:13:15;98470.45;;;8.04;84.11
62038;BME280;47991;42.974;12.082;2023-02-21T03:15:55;98475.66;;;7.89;86.01
62038;BME280;47991;42.974;12.082;2023-02-21T03:18:35;98475.15;;;7.88;85.18
62038;BME280;47991;42.974;12.082;2023-02-21T03:21:11;98476.02;;;7.87;85.36
62038;BME280;47991;42.974;12.082;2023-02-21T03:23:40;98474.44;;;7.89;84.72
62038;BME280;47991;42.974;12.082;2023-02-21T03:26:10;98475.64;;;7.92;85.20
62038;BME280;47991;42.974;12.082;2023-02-21T03:28:41;98473.92;;;7.88;85.21
62038;BME280;47991;42.974;12.082;2023-02-21T03:31:09;98473.38;;;7.89;84.59
62038;BME280;47991;42.974;12.082;2023-02-21T03:33:38;98472.11;;;7.94;85.45
62038;BME280;47991;42.974;12.082;2023-02-21T03:36:08;98472.13;;;7.92;85.75
62038;BME280;47991;42.974;12.082;2023-02-21T03:38:36;98468.93;;;7.95;85.06
62038;BME280;47991;42.974;12.082;2023-02-21T03:41:05;98468.20;;;8.00;84.37
62038;BME280;47991;42.974;12.082;2023-02-21T03:43:33;98474.00;;;8.02;84.81
62038;BME280;47991;42.974;12.082;2023-02-21T03:46:01;98474.38;;;7.99;85.88
62038;BME280;47991;42.974;12.082;2023-02-21T03:48:29;98473.86;;;7.95;86.63
62038;BME280;47991;42.974;12.082;2023-02-21T03:50:57;98474.41;;;7.93;85.98
62038;BME280;47991;42.974;12.082;2023-02-21T03:53:28;98472.80;;;7.98;85.46
62038;BME280;47991;42.974;12.082;2023-02-21T03:55:55;98472.77;;;8.01;85.43
62038;BME280;47991;42.974;12.082;2023-02-21T03:58:26;98470.83;;;8.01;86.00
62038;BME280;47991;42.974;12.082;2023-02-21T04:00:53;98478.41;;;8.00;85.47
62038;BME280;47991;42.974;12.082;2023-02-21T04:03:20;98479.98;;;8.02;85.48
62038;BME280;47991;42.974;12.082;2023-02-21T04:05:54;98480.70;;;8.01;85.39
62038;BME280;47991;42.974;12.082;2023-02-21T04:08:21;98481.41;;;8.00;86.24
62038;BME280;47991;42.974;12.082;2023-02-21T04:10:48;98484.25;;;7.95;86.32
62038;BME280;47991;42.974;12.082;2023-02-21T04:13:15;98479.66;;;7.97;85.48
62038;BME280;47991;42.974;12.082;2023-02-21T04:15:45;98483.86;;;8.02;85.38
62038;BME280;47991;42.974;12.082;2023-02-21T04:18:13;98479.08;;;8.05;84.96
62038;BME280;47991;42.974;12.082;2023-02-21T04:20:40;98476.95;;;8.07;85.03
62038;BME280;47991;42.974;12.082;2023-02-21T04:23:10;98477.14;;;8.07;84.84
62038;BME280;47991;42.974;12.082;2023-02-21T04:25:37;98480.15;;;8.04;85.76
62038;BME280;47991;42.974;12.082;2023-02-21T04:28:10;98479.34;;;7.92;86.62
62038;BME280;47991;42.974;12.082;2023-02-21T04:30:37;98477.10;;;7.84;86.09
62038;BME280;47991;42.974;12.082;2023-02-21T04:33:04;98478.35;;;7.80;86.71
62038;BME280;47991;42.974;12.082;2023-02-21T04:35:32;98481.55;;;7.77;86.14
62038;BME280;47991;42.974;12.082;2023-02-21T04:38:02;98482.23;;;7.81;85.77
62038;BME280;47991;42.974;12.082;2023-02-21T04:40:29;98477.80;;;7.84;86.26
62038;BME280;47991;42.974;12.082;2023-02-21T04:42:56;98479.20;;;7.88;85.47
62038;BME280;47991;42.974;12.082;2023-02-21T04:45:23;98480.98;;;7.84;85.69
62038;BME280;47991;42.974;12.082;2023-02-21T04:47:50;98478.68;;;7.84;85.41
62038;BME280;47991;42.974;12.082;2023-02-21T04:50:17;98479.38;;;7.88;85.23
62038;BME280;47991;42.974;12.082;2023-02-21T04:52:46;98478.17;;;7.81;88.72
62038;BME280;47991;42.974;12.082;2023-02-21T04:55:14;98480.84;;;7.77;87.47
62038;BME280;47991;42.974;12.082;2023-02-21T04:57:41;98474.86;;;7.77;87.17
62038;BME280;47991;42.974;12.082;2023-02-21T05:00:09;98474.67;;;7.79;86.53
62038;BME280;47991;42.974;12.082;2023-02-21T05:02:37;98477.11;;;7.83;86.21
62038;BME280;47991;42.974;12.082;2023-02-21T05:05:04;98476.02;;;7.88;86.07
62038;BME280;47991;42.974;12.082;2023-02-21T05:07:31;98472.14;;;7.89;86.10
62038;BME280;47991;42.974;12.082;2023-02-21T05:09:58;98474.41;;;7.91;85.78
62038;BME280;47991;42.974;12.082;2023-02-21T05:12:25;98470.17;;;7.94;85.73
62038;BME280;47991;42.974;12.082;2023-02-21T05:14:52;98467.69;;;7.98;85.59
62038;BME280;47991;42.974;12.082;2023-02-21T05:17:19;98467.67;;;7.99;85.43
62038;BME280;47991;42.974;12.082;2023-02-21T05:19:46;98466.09;;;8.00;85.52
62038;BME280;47991;42.974;12.082;2023-02-21T05:22:13;98461.70;;;7.99;85.76
62038;BME280;47991;42.974;12.082;2023-02-21T05:24:45;98462.02;;;8.02;85.61
62038;BME280;47991;42.974;12.082;2023-02-21T05:27:16;98459.38;;;8.03;85.70
62038;BME280;47991;42.974;12.082;2023-02-21T05:29:51;98460.07;;;8.05;86.13
62038;BME280;47991;42.974;12.082;2023-02-21T05:32:20;98458.34;;;8.00;87.55
62038;BME280;47991;42.974;12.082;2023-02-21T05:34:47;98456.80;;;7.93;86.73
62038;BME280;47991;42.974;12.082;2023-02-21T05:37:16;98450.98;;;7.94;86.27
62038;BME280;47991;42.974;12.082;2023-02-21T05:39:43;98450.42;;;7.99;85.94
62038;BME280;47991;42.974;12.082;2023-02-21T05:42:10;98453.55;;;8.03;85.51
62038;BME280;47991;42.974;12.082;2023-02-21T05:44:37;98452.69;;;8.01;86.58
62038;BME280;47991;42.974;12.082;2023-02-21T05:47:04;98452.21;;;7.95;86.49
62038;BME280;47991;42.974;12.082;2023-02-21T05:49:35;98444.13;;;7.94;86.34
62038;BME280;47991;42.974;12.082;2023-02-21T05:52:02;98447.62;;;7.97;86.05
62038;BME280;47991;42.974;12.082;2023-02-21T05:54:30;98450.05;;;8.02;85.89
62038;BME280;47991;42.974;12.082;2023-02-21T05:56:57;98459.20;;;8.04;86.48
62038;BME280;47991;42.974;12.082;2023-02-21T05:59:24;98460.42;;;8.04;86.23
62038;BME280;47991;42.974;12.082;2023-02-21T06:01:51;98461.66;;;8.04;86.24
62038;BME280;47991;42.974;12.082;2023-02-21T06:04:18;98458.53;;;7.97;87.74
62038;BME280;47991;42.974;12.082;2023-02-21T06:06:45;98461.06;;;7.89;87.67
62038;BME280;47991;42.974;12.082;2023-02-21T06:09:12;98461.23;;;7.90;87.03
62038;BME280;47991;42.974;12.082;2023-02-21T06:11:39;98461.90;;;7.95;86.80
62038;BME280;47991;42.974;12.082;2023-02-21T06:14:16;98456.80;;;7.94;86.49
62038;BME280;47991;42.974;12.082;2023-02-21T06:16:44;98455.73;;;7.95;86.51
62038;BME280;47991;42.974;12.082;2023-02-21T06:19:13;98450.77;;;8.01;86.23
62038;BME280;47991;42.974;12.082;2023-02-21T06:21:42;98450.56;;;8.03;85.92
62038;BME280;47991;42.974;12.082;2023-02-21T06:24:10;98454.63;;;8.02;86.24
62038;BME280;47991;42.974;12.082;2023-02-21T06:26:37;98455.88;;;7.99;86.17
62038;BME280;47991;42.974;12.082;2023-02-21T06:29:07;98458.34;;;8.01;86.25
62038;BME280;47991;42.974;12.082;2023-02-21T06:31:34;98458.52;;;7.99;86.54
62038;BME280;47991;42.974;12.082;2023-02-21T06:34:02;98460.12;;;7.96;86.56
62038;BME280;47991;42.974;12.082;2023-02-21T06:36:30;98462.41;;;7.99;86.24
62038;BME280;47991;42.974;12.082;2023-02-21T06:38:57;98456.61;;;7.96;87.13
62038;BME280;47991;42.974;12.082;2023-02-21T06:41:27;98461.90;;;7.94;86.66
62038;BME280;47991;42.974;12.082;2023-02-21T06:43:56;98462.58;;;7.99;86.44
62038;BME280;47991;42.974;12.082;2023-02-21T06:46:27;98455.86;;;8.02;86.91
62038;BME280;47991;42.974;12.082;2023-02-21T06:48:55;98458.71;;;7.96;87.53
62038;BME280;47991;42.974;12.082;2023-02-21T06:51:22;98457.69;;;7.91;86.84
62038;BME280;47991;42.974;12.082;2023-02-21T06:53:56;98458.61;;;7.87;87.49
62038;BME280;47991;42.974;12.082;2023-02-21T06:56:23;98455.11;;;7.82;87.22
62038;BME280;47991;42.974;12.082;2023-02-21T06:58:50;98457.23;;;7.80;87.31
62038;BME280;47991;42.974;12.082;2023-02-21T07:01:18;98458.27;;;7.84;87.19
62038;BME280;47991;42.974;12.082;2023-02-21T07:03:45;98453.34;;;7.84;87.11
62038;BME280;47991;42.974;12.082;2023-02-21T07:06:14;98454.02;;;7.89;87.00
62038;BME280;47991;42.974;12.082;2023-02-21T07:08:41;98457.14;;;7.95;87.05
62038;BME280;47991;42.974;12.082;2023-02-21T07:11:08;98454.00;;;7.92;87.12
62038;BME280;47991;42.974;12.082;2023-02-21T07:13:35;98452.41;;;7.90;87.36
62038;BME280;47991;42.974;12.082;2023-02-21T07:16:03;98451.05;;;7.84;87.97
62038;BME280;47991;42.974;12.082;2023-02-21T07:18:30;98449.83;;;7.82;87.66
62038;BME280;47991;42.974;12.082;2023-02-21T07:20:58;98450.85;;;7.90;87.51
62038;BME280;47991;42.974;12.082;2023-02-21T07:23:25;98449.38;;;7.98;87.18
62038;BME280;47991;42.974;12.082;2023-02-21T07:25:52;98456.34;;;8.07;87.00
62038;BME280;47991;42.974;12.082;2023-02-21T07:28:18;98454.61;;;8.05;86.97
62038;BME280;47991;42.974;12.082;2023-02-21T07:30:46;98454.46;;;8.00;87.60
62038;BME280;47991;42.974;12.082;2023-02-21T07:33:13;98455.39;;;7.92;88.71
62038;BME280;47991;42.974;12.082;2023-02-21T07:35:39;98452.70;;;7.73;89.50
62038;BME280;47991;42.974;12.082;2023-02-21T07:38:06;98456.25;;;7.66;88.74
62038;BME280;47991;42.974;12.082;2023-02-21T07:40:33;98452.75;;;7.66;88.96
62038;BME280;47991;42.974;12.082;2023-02-21T07:43:00;98451.09;;;7.77;88.53
62038;BME280;47991;42.974;12.082;2023-02-21T07:45:28;98451.23;;;7.83;89.01
62038;BME280;47991;42.974;12.082;2023-02-21T07:47:54;98460.10;;;7.71;90.21
62038;BME280;47991;42.974;12.082;2023-02-21T07:50:21;98460.52;;;7.62;91.52
62038;BME280;47991;42.974;12.082;2023-02-21T07:52:49;98457.48;;;7.68;90.45
62038;BME280;47991;42.974;12.082;2023-02-21T07:55:16;98456.34;;;7.82;89.68
62038;BME280;47991;42.974;12.082;2023-02-21T07:57:44;98453.81;;;7.94;89.35
62038;BME280;47991;42.974;12.082;2023-02-21T08:00:13;98456.72;;;8.04;89.02
62038;BME280;47991;42.974;12.082;2023-02-21T08:02:40;98451.76;;;8.09;89.15
62038;BME280;47991;42.974;12.082;2023-02-21T08:05:08;98450.27;;;8.19;88.31
62038;BME280;47991;42.974;12.082;2023-02-21T08:07:35;98448.79;;;8.29;87.49
62038;BME280;47991;42.974;12.082;2023-02-21T08:10:03;98450.47;;;8.37;87.12
62038;BME280;47991;42.974;12.082;2023-02-21T08:12:30;98452.39;;;8.46;87.28
62038;BME280;47991;42.974;12.082;2023-02-21T08:14:57;98451.66;;;8.47;86.96
62038;BME280;47991;42.974;12.082;2023-02-21T08:17:25;98452.82;;;8.54;86.75
62038;BME280;47991;42.974;12.082;2023-02-21T08:19:52;98450.65;;;8.61;86.57
62038;BME280;47991;42.974;12.082;2023-02-21T08:22:19;98450.92;;;8.69;86.32
62038;BME280;47991;42.974;12.082;2023-02-21T08:24:48;98451.43;;;8.71;86.20
62038;BME280;47991;42.974;12.082;2023-02-21T08:27:16;98449.34;;;8.70;86.01
62038;BME280;47991;42.974;12.082;2023-02-21T08:29:49;98449.48;;;8.73;85.85
62038;BME280;47991;42.974;12.082;2023-02-21T08:32:18;98449.69;;;8.70;85.63
62038;BME280;47991;42.974;12.082;2023-02-21T08:34:46;98447.13;;;8.60;86.71
62038;BME280;47991;42.974;12.082;2023-02-21T08:37:14;98445.23;;;8.57;86.63
62038;BME280;47991;42.974;12.082;2023-02-21T08:39:46;98450.53;;;8.56;86.75
62038;BME280;47991;42.974;12.082;2023-02-21T08:42:13;98453.93;;;8.48;87.06
62038;BME280;47991;42.974;12.082;2023-02-21T08:44:47;98457.14;;;8.45;87.45
62038;BME280;47991;42.974;12.082;2023-02-21T08:47:15;98454.99;;;8.47;86.73
62038;BME280;47991;42.974;12.082;2023-02-21T08:49:46;98457.11;;;8.49;86.54
62038;BME280;47991;42.974;12.082;2023-02-21T08:52:14;98454.02;;;8.59;86.84
62038;BME280;47991;42.974;12.082;2023-02-21T08:54:43;98457.41;;;8.74;86.63
62038;BME280;47991;42.974;12.082;2023-02-21T08:57:11;98455.84;;;8.87;86.18
62038;BME280;47991;42.974;12.082;2023-02-21T08:59:40;98452.55;;;8.99;85.54
62038;BME280;47991;42.974;12.082;2023-02-21T09:02:20;98456.84;;;9.10;85.76
62038;BME280;47991;42.974;12.082;2023-02-21T09:04:47;98458.86;;;9.18;85.08
62038;BME280;47991;42.974;12.082;2023-02-21T09:07:16;98456.41;;;9.17;84.45
62038;BME280;47991;42.974;12.082;2023-02-21T09:09:45;98453.45;;;9.13;84.55
62038;BME280;47991;42.974;12.082;2023-02-21T09:12:12;98452.70;;;9.18;84.95
62038;BME280;47991;42.974;12.082;2023-02-21T09:14:41;98452.05;;;9.27;84.42
62038;BME280;47991;42.974;12.082;2023-02-21T09:17:11;98455.45;;;9.38;83.87
62038;BME280;47991;42.974;12.082;2023-02-21T09:19:39;98456.62;;;9.43;83.74
62038;BME280;47991;42.974;12.082;2023-02-21T09:22:07;98452.66;;;9.49;83.58
62038;BME280;47991;42.974;12.082;2023-02-21T09:24:35;98448.85;;;9.57;84.12
62038;BME280;47991;42.974;12.082;2023-02-21T09:27:03;98450.33;;;9.65;83.47
62038;BME280;47991;42.974;12.082;2023-02-21T09:29:32;98446.39;;;9.69;83.38
62038;BME280;47991;42.974;12.082;2023-02-21T09:32:00;98449.31;;;9.62;82.61
62038;BME280;47991;42.974;12.082;2023-02-21T09:34:28;98447.82;;;9.55;82.93
62038;BME280;47991;42.974;12.082;2023-02-21T09:36:55;98450.18;;;9.50;82.84
62038;BME280;47991;42.974;12.082;2023-02-21T09:39:23;98451.14;;;9.44;83.23
62038;BME280;47991;42.974;12.082;2023-02-21T09:41:50;98446.78;;;9.25;83.65
62038;BME280;47991;42.974;12.082;2023-02-21T09:44:22;98448.09;;;9.19;83.99
62038;BME280;47991;42.974;12.082;2023-02-21T09:46:53;98445.71;;;9.11;85.02
62038;BME280;47991;42.974;12.082;2023-02-21T09:49:43;98448.64;;;9.18;84.47
62038;BME280;47991;42.974;12.082;2023-02-21T09:52:24;98449.42;;;9.26;84.44
62038;BME280;47991;42.974;12.082;2023-02-21T09:54:57;98448.27;;;9.34;84.31
62038;BME280;47991;42.974;12.082;2023-02-21T09:57:25;98445.15;;;9.29;84.52
62038;BME280;47991;42.974;12.082;2023-02-21T09:59:52;98447.36;;;9.36;83.85
62038;BME280;47991;42.974;12.082;2023-02-21T10:02:33;98445.38;;;9.39;83.96
62038;BME280;47991;42.974;12.082;2023-02-21T10:07:40;98445.89;;;9.54;83.43
62038;BME280;47991;42.974;12.082;2023-02-21T10:10:22;98443.83;;;9.63;83.16
62038;BME280;47991;42.974;12.082;2023-02-21T10:12:56;98442.40;;;9.64;83.61
62038;BME280;47991;42.974;12.082;2023-02-21T10:20:55;98441.87;;;9.77;82.73
62038;BME280;47991;42.974;12.082;2023-02-21T10:23:39;98440.17;;;9.84;82.42
62038;BME280;47991;42.974;12.082;2023-02-21T10:26:10;98439.04;;;9.89;82.39
62038;BME280;47991;42.974;12.082;2023-02-21T10:28:38;98436.23;;;10.00;81.65
62038;BME280;47991;42.974;12.082;2023-02-21T10:31:13;98430.98;;;10.08;81.69
62038;BME280;47991;42.974;12.082;2023-02-21T10:33:42;98430.58;;;10.11;80.74
62038;BME280;47991;42.974;12.082;2023-02-21T10:36:17;98425.70;;;10.06;80.42
62038;BME280;47991;42.974;12.082;2023-02-21T10:39:11;98425.02;;;10.05;80.04
62038;BME280;47991;42.974;12.082;2023-02-21T10:41:41;98426.09;;;10.05;79.72
62038;BME280;47991;42.974;12.082;2023-02-21T10:44:13;98422.98;;;10.11;80.44
62038;BME280;47991;42.974;12.082;2023-02-21T10:46:46;98422.33;;;10.18;80.29
62038;BME280;47991;42.974;12.082;2023-02-21T10:49:24;98419.48;;;10.20;80.28
62038;BME280;47991;42.974;12.082;2023-02-21T10:52:12;98417.68;;;10.22;80.25
62038;BME280;47991;42.974;12.082;2023-02-21T10:54:39;98413.96;;;10.22;80.01
62038;BME280;47991;42.974;12.082;2023-02-21T10:57:09;98413.96;;;10.23;80.18
62038;BME280;47991;42.974;12.082;2023-02-21T10:59:40;98413.45;;;10.10;80.78
62038;BME280;47991;42.974;12.082;2023-02-21T11:05:07;98403.58;;;10.09;80.96
62038;BME280;47991;42.974;12.082;2023-02-21T11:07:34;98400.40;;;10.09;80.67
62038;BME280;47991;42.974;12.082;2023-02-21T11:10:02;98398.58;;;10.12;80.01
62038;BME280;47991;42.974;12.082;2023-02-21T11:12:30;98393.40;;;10.16;80.11
62038;BME280;47991;42.974;12.082;2023-02-21T11:17:26;98389.27;;;10.20;80.25
62038;BME280;47991;42.974;12.082;2023-02-21T11:22:25;98390.02;;;10.28;79.97
62038;BME280;47991;42.974;12.082;2023-02-21T11:27:35;98384.21;;;10.38;77.60
62038;BME280;47991;42.974;12.082;2023-02-21T11:30:17;98381.83;;;10.43;77.18
62038;BME280;47991;42.974;12.082;2023-02-21T11:32:50;98376.28;;;10.47;76.53
62038;BME280;47991;42.974;12.082;2023-02-21T11:37:53;98368.61;;;10.51;75.75
62038;BME280;47991;42.974;12.082;2023-02-21T11:43:24;98358.64;;;10.55;74.41
62038;BME280;47991;42.974;12.082;2023-02-21T11:54:06;98335.73;;;10.95;74.56
62038;BME280;47991;42.974;12.082;2023-02-21T11:56:54;98325.96;;;11.05;74.80
62038;BME280;47991;42.974;12.082;2023-02-21T12:03:21;98314.56;;;11.17;73.44
62038;BME280;47991;42.974;12.082;2023-02-21T12:18:38;98290.60;;;11.28;71.53
62038;BME280;47991;42.974;12.082;2023-02-21T12:27:24;98286.80;;;11.32;71.86
62038;BME280;47991;42.974;12.082;2023-02-21T12:38:36;98269.04;;;11.19;73.17
62038;BME280;47991;42.974;12.082;2023-02-21T12:44:47;98259.70;;;11.10;70.82
62038;BME280;47991;42.974;12.082;2023-02-21T12:55:58;98254.95;;;11.00;70.58
62038;BME280;47991;42.974;12.082;2023-02-21T13:06:48;98241.98;;;11.10;71.15
62038;BME280;47991;42.974;12.082;2023-02-21T13:11:58;98234.13;;;11.13;70.95
62038;BME280;47991;42.974;12.082;2023-02-21T13:14:49;98233.59;;;11.06;70.36
62038;BME280;47991;42.974;12.082;2023-02-21T13:17:18;98229.20;;;11.04;70.44
62038;BME280;47991;42.974;12.082;2023-02-21T13:19:53;98230.89;;;11.09;70.99
62038;BME280;47991;42.974;12.082;2023-02-21T13:22:23;98232.16;;;11.14;70.88
62038;BME280;47991;42.974;12.082;2023-02-21T13:28:30;98228.17;;;11.11;70.75
62038;BME280;47991;42.974;12.082;2023-02-21T13:31:04;98223.20;;;11.11;70.95
62038;BME280;47991;42.974;12.082;2023-02-21T13:33:40;98220.66;;;11.15;71.31
62038;BME280;47991;42.974;12.082;2023-02-21T13:39:29;98216.67;;;11.18;70.83
62038;BME280;47991;42.974;12.082;2023-02-21T13:42:07;98217.35;;;11.12;70.24
62038;BME280;47991;42.974;12.082;2023-02-21T13:44:40;98216.71;;;11.09;70.82
62038;BME280;47991;42.974;12.082;2023-02-21T13:47:12;98211.86;;;11.05;70.69
62038;BME280;47991;42.974;12.082;2023-02-21T13:57:39;98203.56;;;11.04;71.04
62038;BME280;47991;42.974;12.082;2023-02-21T14:06:18;98197.12;;;10.99;70.82
62038;BME280;47991;42.974;12.082;2023-02-21T14:10:50;98194.58;;;10.95;70.20
62038;BME280;47991;42.974;12.082;2023-02-21T14:15:50;98194.01;;;10.89;70.58
62038;BME280;47991;42.974;12.082;2023-02-21T14:18:30;98187.93;;;10.91;70.26
62038;BME280;47991;42.974;12.082;2023-02-21T14:32:27;98177.49;;;10.91;71.02
62038;BME280;47991;42.974;12.082;2023-02-21T14:34:58;98174.34;;;10.90;72.39
62038;BME280;47991;42.974;12.082;2023-02-21T14:37:35;98172.63;;;10.88;72.69
62038;BME280;47991;42.974;12.082;2023-02-21T14:48:54;98177.73;;;10.96;73.45
62038;BME280;47991;42.974;12.082;2023-02-21T15:04:50;98169.17;;;11.07;73.49
62038;BME280;47991;42.974;12.082;2023-02-21T15:10:28;98167.34;;;11.02;74.16
62038;BME280;47991;42.974;12.082;2023-02-21T15:13:03;98165.45;;;10.92;74.61
62038;BME280;47991;42.974;12.082;2023-02-21T15:15:34;98166.11;;;10.87;74.25
62038;BME280;47991;42.974;12.082;2023-02-21T15:18:11;98166.17;;;10.91;74.31
62038;BME280;47991;42.974;12.082;2023-02-21T15:20:43;98161.24;;;10.90;74.54
62038;BME280;47991;42.974;12.082;2023-02-21T15:23:20;98159.27;;;10.91;73.87
62038;BME280;47991;42.974;12.082;2023-02-21T15:25:57;98155.92;;;10.91;73.42
62038;BME280;47991;42.974;12.082;2023-02-21T15:28:31;98159.92;;;10.86;73.21
62038;BME280;47991;42.974;12.082;2023-02-21T15:31:04;98156.52;;;10.81;72.96
62038;BME280;47991;42.974;12.082;2023-02-21T15:33:35;98157.11;;;10.78;73.20
62038;BME280;47991;42.974;12.082;2023-02-21T15:36:16;98153.09;;;10.75;73.34
62038;BME280;47991;42.974;12.082;2023-02-21T15:38:50;98152.79;;;10.73;73.43
62038;BME280;47991;42.974;12.082;2023-02-21T15:44:21;98146.20;;;10.68;73.42
62038;BME280;47991;42.974;12.082;2023-02-21T15:49:24;98144.08;;;10.68;73.21
62038;BME280;47991;42.974;12.082;2023-02-21T15:51:52;98144.43;;;10.68;73.27
62038;BME280;47991;42.974;12.082;2023-02-21T15:56:46;98140.15;;;10.69;73.34
62038;BME280;47991;42.974;12.082;2023-02-21T15:59:18;98136.56;;;10.72;73.32
62038;BME280;47991;42.974;12.082;2023-02-21T16:02:12;98136.12;;;10.68;73.18
62038;BME280;47991;42.974;12.082;2023-02-21T16:04:50;98137.59;;;10.65;73.62
62038;BME280;47991;42.974;12.082;2023-02-21T16:07:28;98139.85;;;10.66;73.58
62038;BME280;47991;42.974;12.082;2023-02-21T16:10:04;98137.33;;;10.70;73.41
62038;BME280;47991;42.974;12.082;2023-02-21T16:12:36;98137.49;;;10.69;73.39
62038;BME280;47991;42.974;12.082;2023-02-21T16:15:07;98138.77;;;10.67;73.72
62038;BME280;47991;42.974;12.082;2023-02-21T16:17:50;98134.02;;;10.67;73.25
62038;BME280;47991;42.974;12.082;2023-02-21T16:20:21;98134.73;;;10.67;73.53
62038;BME280;47991;42.974;12.082;2023-02-21T16:23:12;98136.02;;;10.64;73.70
62038;BME280;47991;42.974;12.082;2023-02-21T16:28:30;98132.36;;;10.61;73.55
62038;BME280;47991;42.974;12.082;2023-02-21T16:30:59;98135.86;;;10.63;73.21
62038;BME280;47991;42.974;12.082;2023-02-21T16:33:28;98135.26;;;10.67;73.39
62038;BME280;47991;42.974;12.082;2023-02-21T16:35:55;98137.58;;;10.66;73.23
62038;BME280;47991;42.974;12.082;2023-02-21T16:38:24;98129.55;;;10.61;73.19